Time;durP1;ratioP1;P1;durP2;ratioP2;P2;SDS_P1;SDS_P2;PMS_P1;PMS_P2;Temp;Humidity;BMP_temperature;BMP_pressure;BME280_temperature;BME280_humidity;BME280_pressure;Samples;Min_cycle;Max_cycle;Signal;HPM_P1;HPM_P2
2022/11/17 00:02:01;;;;;;;48.37;25.97;;;;;;;-141.28;100.00;48222.84;5111980;28;20451;-76
2022/11/17 00:04:30;;;;;;;42.90;23.60;;;;;;;-141.28;100.00;48281.69;5111657;28;20445;-76
2022/11/17 00:06:58;;;;;;;46.90;24.43;;;;;;;-141.28;100.00;48279.72;5111630;28;20457;-78
2022/11/17 00:09:25;;;;;;;50.70;25.73;;;;;;;-141.28;100.00;48273.84;5112944;28;20810;-78
2022/11/17 00:14:39;;;;;;;46.40;25.30;;;;;;;-141.28;100.00;48242.47;5114198;28;20512;-74
2022/11/17 00:17:09;;;;;;;46.53;25.37;;;;;;;-141.28;100.00;48242.47;5113537;28;20445;-74
2022/11/17 00:22:21;;;;;;;56.77;29.70;;;;;;;-141.28;100.00;48211.06;5105476;28;20428;-74
2022/11/17 00:24:49;;;;;;;51.43;27.87;;;;;;;-141.28;100.00;48203.22;5116720;28;20636;-77
2022/11/17 00:27:19;;;;;;;45.80;24.13;;;;;;;-141.28;100.00;48213.03;5118483;28;20460;-75
2022/11/17 00:29:46;;;;;;;48.60;25.37;;;;;;;-141.28;100.00;48218.91;5124799;28;20264;-73
2022/11/17 00:35:01;;;;;;;49.10;25.50;;;;;;;-141.28;100.00;48195.38;5122637;28;20272;-76
2022/11/17 00:37:30;;;;;;;47.80;25.13;;;;;;;-141.28;100.00;48199.31;5117496;28;20883;-76
2022/11/17 00:39:56;;;;;;;45.90;24.93;;;;;;;-141.28;100.00;48183.59;5112800;28;20282;-77
2022/11/17 00:42:24;;;;;;;43.87;24.73;;;;;;;-141.28;100.00;48195.38;5113415;28;20890;-75
2022/11/17 00:44:52;;;;;;;40.03;22.77;;;;;;;-141.28;100.00;48199.31;5115539;28;20651;-77
2022/11/17 00:47:23;;;;;;;43.30;22.87;;;;;;;-141.28;100.00;48199.31;5116481;28;20856;-77
2022/11/17 00:49:50;;;;;;;43.93;23.80;;;;;;;-141.28;100.00;48209.09;5118759;28;20846;-78
2022/11/17 00:52:17;;;;;;;41.30;20.97;;;;;;;-141.28;100.00;48207.16;5116289;28;20917;-74
2022/11/17 00:54:45;;;;;;;36.20;20.43;;;;;;;-141.28;100.00;48199.31;5115620;28;20445;-78
2022/11/17 00:57:12;;;;;;;33.17;20.90;;;;;;;-141.28;100.00;48183.59;5115302;28;20445;-76
2022/11/17 00:59:38;;;;;;;38.47;20.97;;;;;;;-141.28;100.00;48205.19;5115205;28;20444;-76
2022/11/17 01:02:06;;;;;;;34.40;18.97;;;;;;;-141.28;100.00;48207.16;5114788;28;20799;-75
2022/11/17 01:04:35;;;;;;;36.90;20.27;;;;;;;-141.28;100.00;48211.06;5112325;28;20488;-76
2022/11/17 01:07:02;;;;;;;39.73;20.20;;;;;;;-141.28;100.00;48195.38;5114516;28;20502;-75
2022/11/17 01:09:30;;;;;;;37.53;19.33;;;;;;;-141.28;100.00;48203.22;5114540;28;20820;-74
2022/11/17 01:11:57;;;;;;;34.57;20.03;;;;;;;-141.28;100.00;48191.44;5114831;28;20556;-77
2022/11/17 01:14:26;;;;;;;36.07;21.37;;;;;;;-141.28;100.00;48191.44;5115220;28;20514;-75
2022/11/17 01:16:55;;;;;;;36.03;20.17;;;;;;;-141.28;100.00;48197.34;5115930;28;20443;-75
2022/11/17 01:19:23;;;;;;;36.00;19.80;;;;;;;-141.28;100.00;48195.38;5115170;28;20476;-75
2022/11/17 01:21:51;;;;;;;33.60;18.57;;;;;;;-141.28;100.00;48195.38;5123099;28;20433;-73
2022/11/17 01:24:19;;;;;;;37.07;18.70;;;;;;;-141.28;100.00;48199.31;5119720;28;20199;-75
2022/11/17 01:26:46;;;;;;;34.27;18.50;;;;;;;-141.28;100.00;48199.31;5123377;28;20506;-74
2022/11/17 01:29:17;;;;;;;28.67;17.70;;;;;;;-141.28;100.00;48195.38;5123953;28;20519;-73
2022/11/17 01:31:49;;;;;;;31.37;18.17;;;;;;;-141.28;100.00;48187.53;5124472;28;20867;-74
2022/11/17 01:34:17;;;;;;;31.80;17.00;;;;;;;-141.28;100.00;48189.50;5114921;28;20480;-75
2022/11/17 01:39:31;;;;;;;27.20;15.97;;;;;;;-141.28;100.00;48167.91;5107969;28;20559;-74
2022/11/17 01:42:03;;;;;;;30.03;16.47;;;;;;;-141.28;100.00;48175.75;5114416;28;20505;-75
2022/11/17 01:44:57;;;;;;;30.43;17.23;;;;;;;-141.28;100.00;48150.25;5114390;28;20199;-75
2022/11/17 01:47:29;;;;;;;28.17;15.60;;;;;;;-141.28;100.00;48144.38;5114659;28;20506;-74
2022/11/17 01:49:59;;;;;;;31.27;16.43;;;;;;;-141.28;100.00;48146.34;5114301;28;20455;-75
2022/11/17 01:52:27;;;;;;;25.77;15.67;;;;;;;-141.28;100.00;48160.06;5113968;28;20541;-75
2022/11/17 01:54:57;;;;;;;23.07;15.23;;;;;;;-141.28;100.00;48165.97;5112668;28;20509;-75
2022/11/17 01:57:27;;;;;;;30.57;15.87;;;;;;;-141.28;100.00;48175.75;5113858;28;20199;-75
2022/11/17 01:59:59;;;;;;;25.90;15.53;;;;;;;-141.28;100.00;48175.75;5117727;28;20194;-74
2022/11/17 02:02:27;;;;;;;25.07;14.97;;;;;;;-141.28;100.00;48183.59;5121632;28;20994;-73
2022/11/17 02:05:01;;;;;;;25.30;15.80;;;;;;;-141.28;100.00;48177.72;5117071;28;20805;-79
2022/11/17 02:07:31;;;;;;;29.53;16.27;;;;;;;-141.28;100.00;48177.72;5117989;28;20199;-74
2022/11/17 02:10:01;;;;;;;27.80;15.23;;;;;;;-141.28;100.00;48183.59;5118965;28;20199;-75
2022/11/17 02:12:30;;;;;;;26.37;15.50;;;;;;;-141.28;100.00;48183.59;5117844;28;20309;-78
2022/11/17 02:14:57;;;;;;;27.77;16.47;;;;;;;-141.28;100.00;48179.69;5118191;28;20715;-75
2022/11/17 02:17:36;;;;;;;27.03;15.83;;;;;;;-141.28;100.00;48164.00;5113601;28;20441;-76
2022/11/17 02:20:07;;;;;;;28.57;16.10;;;;;;;-141.28;100.00;48175.75;5113254;28;20479;-77
2022/11/17 02:22:54;;;;;;;28.07;15.77;;;;;;;-141.28;100.00;48171.84;5113563;28;20199;-74
2022/11/17 02:25:35;;;;;;;28.00;16.20;;;;;;;-141.28;100.00;48160.06;5113222;28;20819;-76
2022/11/17 02:28:12;;;;;;;23.13;14.90;;;;;;;-141.28;100.00;48140.47;5113502;28;20203;-74
2022/11/17 02:30:45;;;;;;;25.73;15.33;;;;;;;-141.28;100.00;48150.25;5101698;28;20583;-75
2022/11/17 02:33:20;;;;;;;23.37;14.67;;;;;;;-141.28;100.00;48148.31;5113386;28;20207;-75
2022/11/17 02:35:54;;;;;;;29.10;16.23;;;;;;;-141.28;100.00;48132.59;5113195;28;20946;-75
2022/11/17 02:38:31;;;;;;;27.93;16.70;;;;;;;-141.28;100.00;48148.31;5100143;28;20258;-79
2022/11/17 02:41:08;;;;;;;26.30;15.13;;;;;;;-141.28;100.00;48144.38;5112759;28;20877;-78
2022/11/17 02:46:32;;;;;;;27.23;14.93;;;;;;;-141.28;100.00;48128.69;5112899;28;20456;-74
2022/11/17 02:49:01;;;;;;;24.20;16.10;;;;;;;-141.28;100.00;48136.53;5112823;28;20502;-79
2022/11/17 02:51:30;;;;;;;28.97;15.93;;;;;;;-141.28;100.00;48144.38;5112524;28;20932;-78
2022/11/17 02:53:58;;;;;;;24.80;15.73;;;;;;;-141.28;100.00;48171.84;5113077;28;20195;-77
2022/11/17 02:56:26;;;;;;;28.60;14.80;;;;;;;-141.28;100.00;48162.03;5112181;28;20445;-78
2022/11/17 02:58:59;;;;;;;32.80;16.17;;;;;;;-141.28;100.00;48160.06;5111510;28;20458;-76
2022/11/17 03:01:45;;;;;;;28.00;15.40;;;;;;;-141.28;100.00;48179.69;5100367;28;20453;-75
2022/11/17 03:04:29;;;;;;;25.00;15.00;;;;;;;-141.28;100.00;48148.31;5112261;28;20623;-75
2022/11/17 03:07:06;;;;;;;28.00;15.60;;;;;;;-141.28;100.00;48140.47;5113073;28;20203;-78
2022/11/17 03:09:46;;;;;;;27.50;15.47;;;;;;;-141.28;100.00;48136.53;5100917;28;20585;-76
2022/11/17 03:12:23;;;;;;;23.53;14.80;;;;;;;-141.28;100.00;48124.75;5111039;28;20493;-76
2022/11/17 03:15:01;;;;;;;25.87;15.17;;;;;;;-141.28;100.00;48128.69;5112705;28;20222;-75
2022/11/17 03:17:35;;;;;;;31.30;16.00;;;;;;;-141.28;100.00;48144.38;5112577;28;20281;-74
2022/11/17 03:20:11;;;;;;;23.90;15.03;;;;;;;-141.28;100.00;48140.47;5111692;28;20545;-76
2022/11/17 03:22:43;;;;;;;28.03;16.47;;;;;;;-141.28;100.00;48136.53;5112593;28;20515;-75
2022/11/17 03:25:16;;;;;;;30.97;17.23;;;;;;;-141.28;100.00;48136.53;5112501;28;20440;-75
2022/11/17 03:27:47;;;;;;;28.83;16.50;;;;;;;-141.28;100.00;48144.38;5114308;28;20203;-76
2022/11/17 03:30:19;;;;;;;28.70;16.27;;;;;;;-141.28;100.00;48158.09;5116952;28;20642;-74
2022/11/17 03:32:50;;;;;;;31.83;18.83;;;;;;;-141.28;100.00;48164.00;5112298;28;21006;-76
2022/11/17 03:35:21;;;;;;;33.23;17.00;;;;;;;-141.28;100.00;48175.75;5112025;28;20199;-74
2022/11/17 03:37:51;;;;;;;30.93;17.20;;;;;;;-141.28;100.00;48175.75;5112118;28;20445;-74
2022/11/17 03:40:22;;;;;;;36.20;18.97;;;;;;;-141.28;100.00;48187.53;5112191;28;20453;-74
2022/11/17 03:42:52;;;;;;;35.93;19.93;;;;;;;-141.28;100.00;48187.53;5107101;28;20494;-77
2022/11/17 03:45:24;;;;;;;32.47;18.90;;;;;;;-141.28;100.00;48195.38;5104412;28;20905;-76
2022/11/17 03:47:59;;;;;;;32.47;19.13;;;;;;;-141.28;100.00;48191.44;5111989;28;20477;-75
2022/11/17 03:50:33;;;;;;;35.43;20.07;;;;;;;-141.28;100.00;48165.97;5111790;28;20447;-75
2022/11/17 03:53:01;;;;;;;33.13;20.53;;;;;;;-141.28;100.00;48201.25;5111784;28;20516;-77
2022/11/17 03:55:37;;;;;;;32.40;19.63;;;;;;;-141.28;100.00;48211.06;5111779;28;20509;-77
2022/11/17 03:58:07;;;;;;;30.57;17.67;;;;;;;-141.28;100.00;48207.16;5111676;28;20880;-74
2022/11/17 04:00:39;;;;;;;26.90;17.17;;;;;;;-141.28;100.00;48207.16;5111842;28;20445;-76
2022/11/17 04:03:07;;;;;;;28.80;17.23;;;;;;;-141.28;100.00;48215.00;5112027;28;20437;-76
2022/11/17 04:05:34;;;;;;;27.63;16.30;;;;;;;-141.28;100.00;48215.00;5111495;28;20448;-75
2022/11/17 04:08:01;;;;;;;27.10;16.80;;;;;;;-141.28;100.00;48218.91;5111773;28;20440;-78
2022/11/17 04:10:28;;;;;;;27.37;16.33;;;;;;;-141.28;100.00;48230.69;5111380;28;20506;-77
2022/11/17 04:18:31;;;;;;;30.50;17.00;;;;;;;-141.28;100.00;48179.69;5089093;28;20237;-78
2022/11/17 04:20:59;;;;;;;28.67;17.67;;;;;;;-141.28;100.00;48183.59;5115494;28;20449;-77
2022/11/17 04:23:27;;;;;;;24.90;15.90;;;;;;;-141.28;100.00;48218.91;5116016;28;20464;-74
2022/11/17 04:28:43;;;;;;;32.53;16.73;;;;;;;-141.28;100.00;48183.59;5116071;28;20698;-75
2022/11/17 04:31:13;;;;;;;31.00;16.47;;;;;;;-141.28;100.00;48187.53;5115078;28;20441;-74
2022/11/17 04:33:42;;;;;;;26.63;16.13;;;;;;;-141.28;100.00;48191.44;5115531;28;20280;-73
2022/11/17 04:36:11;;;;;;;26.67;15.93;;;;;;;-141.28;100.00;48203.22;5115214;28;21452;-75
2022/11/17 04:38:42;;;;;;;26.53;15.30;;;;;;;-141.28;100.00;48205.19;5115731;28;20211;-77
2022/11/17 04:43:56;;;;;;;28.57;16.03;;;;;;;-141.28;100.00;48203.22;5115462;28;20661;-75
2022/11/17 04:46:26;;;;;;;27.30;17.13;;;;;;;-141.28;100.00;48211.06;5115430;28;20440;-75
2022/11/17 04:48:54;;;;;;;30.27;17.00;;;;;;;-141.28;100.00;48207.16;5116696;28;21010;-76
2022/11/17 04:51:24;;;;;;;28.03;16.33;;;;;;;-141.28;100.00;48224.81;5115079;28;20501;-79
2022/11/17 04:53:52;;;;;;;26.70;17.33;;;;;;;-141.28;100.00;48228.72;5114214;28;20827;-74
2022/11/17 04:56:19;;;;;;;33.77;16.87;;;;;;;-141.28;100.00;48238.53;5094717;28;20465;-78
2022/11/17 04:58:46;;;;;;;28.20;16.60;;;;;;;-141.28;100.00;48215.00;5115067;28;20449;-77
2022/11/17 05:01:15;;;;;;;29.77;17.30;;;;;;;-141.28;100.00;48258.16;5101318;28;20475;-75
2022/11/17 05:03:45;;;;;;;29.80;16.63;;;;;;;-141.28;100.00;48275.81;5115386;28;20834;-75
2022/11/17 05:06:14;;;;;;;30.27;16.90;;;;;;;-141.28;100.00;48273.84;5115537;28;20468;-78
2022/11/17 05:08:42;;;;;;;28.77;16.23;;;;;;;-141.28;100.00;48266.00;5114942;28;20456;-78
2022/11/17 05:14:06;;;;;;;30.53;17.57;;;;;;;-141.28;100.00;48234.59;5112482;28;20980;-75
2022/11/17 05:19:21;;;;;;;35.13;20.53;;;;;;;-141.28;100.00;48215.00;5115555;28;20529;-75
2022/11/17 05:21:49;;;;;;;38.97;23.90;;;;;;;-141.28;100.00;48226.75;5115155;28;20598;-76
2022/11/17 05:24:15;;;;;;;34.20;21.33;;;;;;;-141.28;100.00;48209.09;5116554;28;20855;-74
2022/11/17 05:26:45;;;;;;;48.37;27.57;;;;;;;-141.28;100.00;48226.75;5118953;28;20448;-78
2022/11/17 05:29:14;;;;;;;39.00;22.63;;;;;;;-141.28;100.00;48244.41;5100616;28;20966;-77
2022/11/17 05:31:43;;;;;;;32.70;19.40;;;;;;;-141.28;100.00;48254.22;5114276;28;20491;-75
2022/11/17 05:34:13;;;;;;;32.30;18.67;;;;;;;-141.28;100.00;48248.34;5114418;28;20432;-75
2022/11/17 05:36:45;;;;;;;34.50;21.60;;;;;;;-141.28;100.00;48252.25;5114666;28;20218;-75
2022/11/17 05:39:12;;;;;;;30.70;18.60;;;;;;;-141.28;100.00;48262.06;5114462;28;20198;-77
2022/11/17 05:41:42;;;;;;;27.63;15.43;;;;;;;-141.28;100.00;48262.06;5114437;28;20685;-75
2022/11/17 05:44:09;;;;;;;30.23;18.13;;;;;;;-141.28;100.00;48273.84;5114262;28;20979;-77
2022/11/17 05:46:36;;;;;;;34.40;18.37;;;;;;;-141.28;100.00;48277.75;5113454;28;20513;-77
2022/11/17 05:49:05;;;;;;;35.10;20.50;;;;;;;-141.28;100.00;48281.69;5113988;28;20506;-75
2022/11/17 05:51:32;;;;;;;31.93;18.87;;;;;;;-141.28;100.00;48281.69;5115105;28;20433;-74
2022/11/17 05:54:01;;;;;;;34.17;21.17;;;;;;;-141.28;100.00;48283.66;5114275;28;20441;-74
2022/11/17 05:56:45;;;;;;;30.30;19.27;;;;;;;-141.28;100.00;48248.34;5113506;28;20946;-78
2022/11/17 05:59:19;;;;;;;38.73;20.63;;;;;;;-141.28;100.00;48273.84;5113849;28;20445;-76
2022/11/17 06:01:51;;;;;;;41.13;20.03;;;;;;;-141.28;100.00;48271.88;5114272;28;20465;-76
2022/11/17 06:04:20;;;;;;;35.37;20.33;;;;;;;-141.28;100.00;48226.75;5113820;28;20445;-75
2022/11/17 06:06:48;;;;;;;36.40;21.10;;;;;;;-141.28;100.00;48279.72;5115809;28;20469;-77
2022/11/17 06:09:17;;;;;;;37.93;20.33;;;;;;;-141.28;100.00;48297.38;5110532;28;20509;-78
2022/11/17 06:11:44;;;;;;;39.33;19.40;;;;;;;-141.28;100.00;48285.59;5103806;28;20436;-75
2022/11/17 06:14:11;;;;;;;34.40;19.20;;;;;;;-141.28;100.00;48297.38;5112344;28;20478;-76
2022/11/17 06:16:46;;;;;;;43.17;22.97;;;;;;;-141.28;100.00;48313.06;5113500;28;20198;-75
2022/11/17 06:19:18;;;;;;;42.97;24.07;;;;;;;-141.28;100.00;48313.06;5100976;28;20475;-76
2022/11/17 06:21:45;;;;;;;39.63;21.27;;;;;;;-141.28;100.00;48309.16;5113294;28;21024;-75
2022/11/17 06:24:13;;;;;;;32.60;18.60;;;;;;;-141.28;100.00;48313.06;5113564;28;20467;-76
2022/11/17 06:26:43;;;;;;;35.40;18.37;;;;;;;-141.28;100.00;48317.00;5113034;28;20963;-76
2022/11/17 06:29:11;;;;;;;30.23;18.37;;;;;;;-141.28;100.00;48313.06;5113043;28;20437;-75
2022/11/17 06:31:39;;;;;;;31.83;18.30;;;;;;;-141.28;100.00;48320.91;5112586;28;20449;-75
2022/11/17 06:34:07;;;;;;;28.70;17.60;;;;;;;-141.28;100.00;48317.00;5113070;28;20437;-77
2022/11/17 06:36:36;;;;;;;40.73;23.10;;;;;;;-141.28;100.00;48328.75;5112952;28;20935;-74
2022/11/17 06:39:03;;;;;;;33.07;19.90;;;;;;;-141.28;100.00;48317.00;5113287;28;20437;-76
2022/11/17 06:41:30;;;;;;;29.67;18.83;;;;;;;-141.28;100.00;48313.06;5099376;28;20506;-75
2022/11/17 06:43:59;;;;;;;28.10;15.07;;;;;;;-141.28;100.00;48311.09;5113981;28;20528;-75
2022/11/17 06:46:36;;;;;;;26.00;13.60;;;;;;;-141.28;100.00;48305.22;5112793;28;20875;-75
2022/11/17 06:49:04;;;;;;;24.83;14.47;;;;;;;-141.28;100.00;48289.53;5113137;28;20460;-77
2022/11/17 06:51:31;;;;;;;28.73;16.80;;;;;;;-141.28;100.00;48277.75;5112520;28;20456;-76
2022/11/17 06:53:58;;;;;;;33.13;17.77;;;;;;;-141.28;100.00;48215.00;5099648;28;20489;-77
2022/11/17 06:56:27;;;;;;;30.10;16.37;;;;;;;-141.28;100.00;48281.69;5112135;28;20441;-76
2022/11/17 06:58:55;;;;;;;26.47;15.50;;;;;;;-141.28;100.00;48277.75;5100655;28;20511;-76
2022/11/17 07:01:23;;;;;;;27.20;15.67;;;;;;;-141.28;100.00;48277.75;5113807;28;20449;-76
2022/11/17 07:03:50;;;;;;;32.87;16.80;;;;;;;-141.28;100.00;48271.88;5113096;28;20222;-75
2022/11/17 07:06:20;;;;;;;26.60;16.73;;;;;;;-141.28;100.00;48275.81;5112796;28;20452;-75
2022/11/17 07:08:47;;;;;;;28.97;16.20;;;;;;;-141.28;100.00;48269.91;5112809;28;20443;-79
2022/11/17 07:11:16;;;;;;;26.10;15.03;;;;;;;-141.28;100.00;48281.69;5112488;28;20521;-78
2022/11/17 07:13:43;;;;;;;21.70;13.53;;;;;;;-141.28;100.00;48267.97;5110566;28;21018;-77
2022/11/17 07:16:13;;;;;;;21.67;12.67;;;;;;;-141.28;100.00;48262.06;5103474;28;20507;-76
2022/11/17 07:18:42;;;;;;;19.97;11.10;;;;;;;-141.28;100.00;48267.97;5108008;28;20472;-76
2022/11/17 07:21:10;;;;;;;20.43;11.97;;;;;;;-141.28;100.00;48266.00;5112231;28;20203;-76
2022/11/17 07:23:39;;;;;;;23.03;15.70;;;;;;;-141.28;100.00;48269.91;5115453;28;20203;-78
2022/11/17 07:26:07;;;;;;;17.63;12.00;;;;;;;-141.28;100.00;48258.16;5112001;28;20211;-78
2022/11/17 07:28:35;;;;;;;17.30;11.33;;;;;;;-141.28;100.00;48256.19;5111954;28;20285;-76
2022/11/17 07:31:04;;;;;;;10.07;6.80;;;;;;;-141.28;100.00;48260.09;5112110;28;20291;-78
2022/11/17 07:33:31;;;;;;;14.47;10.00;;;;;;;-141.28;100.00;48244.41;5111699;28;20654;-77
2022/11/17 07:36:04;;;;;;;19.70;13.40;;;;;;;-141.28;100.00;48242.47;5111896;28;20550;-76
2022/11/17 07:38:32;;;;;;;40.63;24.73;;;;;;;-141.28;100.00;48267.97;5105905;28;20255;-77
2022/11/17 07:41:00;;;;;;;20.97;12.27;;;;;;;-141.28;100.00;48252.25;5104838;28;20445;-75
2022/11/17 07:43:27;;;;;;;26.60;15.33;;;;;;;-141.28;100.00;48246.38;5111812;28;20805;-76
2022/11/17 07:45:55;;;;;;;20.40;10.67;;;;;;;-141.28;100.00;48250.31;5112212;28;20259;-76
2022/11/17 07:48:23;;;;;;;16.10;9.70;;;;;;;-141.28;100.00;48246.38;5112289;28;20638;-76
2022/11/17 07:50:51;;;;;;;14.17;9.73;;;;;;;-141.28;100.00;48234.59;5112024;28;20525;-76
2022/11/17 07:53:20;;;;;;;12.83;8.67;;;;;;;-141.28;100.00;48277.75;5111790;28;20488;-78
2022/11/17 07:55:47;;;;;;;30.60;15.23;;;;;;;-141.28;100.00;48299.34;5111765;28;20435;-77
2022/11/17 07:58:15;;;;;;;33.23;21.00;;;;;;;-141.28;100.00;48281.69;5111619;28;20451;-76
2022/11/17 08:00:42;;;;;;;15.67;9.30;;;;;;;-141.28;100.00;48285.59;5111628;28;20206;-77
2022/11/17 08:03:10;;;;;;;14.23;10.47;;;;;;;-141.28;100.00;48289.53;5112368;28;20199;-76
2022/11/17 08:05:40;;;;;;;23.40;13.10;;;;;;;-141.28;100.00;48301.31;5113084;28;20259;-76
2022/11/17 08:08:08;;;;;;;27.97;17.53;;;;;;;-141.28;100.00;48295.41;5116026;28;20277;-76
2022/11/17 08:10:37;;;;;;;22.93;13.90;;;;;;;-141.28;100.00;48313.06;5114855;28;20207;-76
2022/11/17 08:13:05;;;;;;;24.17;15.43;;;;;;;-141.28;100.00;48313.06;5118955;28;20229;-73
2022/11/17 08:15:32;;;;;;;22.97;13.60;;;;;;;-141.28;100.00;48352.31;5129966;28;20457;-76
2022/11/17 08:18:00;;;;;;;22.67;13.33;;;;;;;-141.28;100.00;48305.22;5133673;28;20199;-76
2022/11/17 08:20:29;;;;;;;17.20;11.27;;;;;;;-141.28;100.00;48338.56;5134742;28;20190;-75
2022/11/17 08:23:02;;;;;;;16.00;9.73;;;;;;;-141.28;100.00;48336.63;5133074;28;20206;-79
2022/11/17 08:25:33;;;;;;;11.73;7.63;;;;;;;-141.28;100.00;48305.22;5117736;28;20236;-77
2022/11/17 08:28:16;;;;;;;14.93;8.13;;;;;;;-141.28;100.00;48297.38;5112788;28;20587;-80
2022/11/17 08:30:48;;;;;;;21.23;7.80;;;;;;;-141.28;100.00;48266.00;5114267;28;20195;-76
2022/11/17 08:33:43;;;;;;;11.63;6.23;;;;;;;-141.28;100.00;48246.38;5114251;28;20246;-76
2022/11/17 08:36:11;;;;;;;9.17;5.63;;;;;;;-141.28;100.00;48218.91;5112832;28;20596;-77
2022/11/17 08:38:46;;;;;;;10.00;5.97;;;;;;;-141.28;100.00;48224.81;5114329;28;20203;-77
2022/11/17 08:41:17;;;;;;;9.87;6.93;;;;;;;-141.28;100.00;48207.16;5112685;28;20741;-77
2022/11/17 08:43:50;;;;;;;7.77;5.23;;;;;;;-141.28;100.00;48218.91;5113339;28;20294;-75
2022/11/17 08:46:24;;;;;;;7.43;5.33;;;;;;;-141.28;100.00;48258.16;5114322;28;20199;-74
2022/11/17 08:48:52;;;;;;;9.63;6.10;;;;;;;-141.28;100.00;48277.75;5112682;28;20198;-76
2022/11/17 08:51:22;;;;;;;10.00;6.30;;;;;;;-141.28;100.00;48301.31;5113094;28;20655;-79
2022/11/17 08:53:49;;;;;;;8.77;5.30;;;;;;;-141.28;100.00;48293.47;5113602;28;20256;-77
2022/11/17 08:56:16;;;;;;;8.30;5.20;;;;;;;-141.28;100.00;48273.84;5112616;28;20191;-77
2022/11/17 08:58:46;;;;;;;10.07;6.20;;;;;;;-141.28;100.00;48267.97;5111635;28;20644;-77
2022/11/17 09:01:18;;;;;;;13.27;9.00;;;;;;;-141.28;100.00;48289.53;5091309;28;20265;-75
2022/11/17 09:03:47;;;;;;;12.83;7.70;;;;;;;-141.28;100.00;48297.38;5107428;28;20202;-78
2022/11/17 09:06:15;;;;;;;11.70;6.47;;;;;;;-141.28;100.00;48299.34;5114869;28;20252;-78
2022/11/17 09:08:43;;;;;;;11.47;6.53;;;;;;;-141.28;100.00;48322.88;5114874;28;20207;-77
2022/11/17 09:11:11;;;;;;;12.53;7.60;;;;;;;-141.28;100.00;48346.41;5112618;28;20198;-79
2022/11/17 09:13:40;;;;;;;17.53;10.53;;;;;;;-141.28;100.00;48348.38;5114535;28;20234;-77
2022/11/17 09:16:10;;;;;;;18.43;10.97;;;;;;;-141.28;100.00;48311.09;5114167;28;20202;-76
2022/11/17 09:18:38;;;;;;;20.20;12.93;;;;;;;-141.28;100.00;48305.22;5113362;28;20227;-77
2022/11/17 09:21:07;;;;;;;19.60;12.30;;;;;;;-141.28;100.00;48305.22;5114725;28;20206;-74
2022/11/17 09:23:39;;;;;;;21.50;12.27;;;;;;;-141.28;100.00;48289.53;5113980;28;20203;-78
2022/11/17 09:26:10;;;;;;;16.53;11.10;;;;;;;-141.28;100.00;48287.56;5114754;28;20282;-76
2022/11/17 09:28:37;;;;;;;17.33;12.30;;;;;;;-141.28;100.00;48279.72;5113886;28;20199;-77
2022/11/17 09:31:10;;;;;;;19.10;12.97;;;;;;;-141.28;100.00;48266.00;5107768;28;20261;-75
2022/11/17 09:33:39;;;;;;;20.80;14.13;;;;;;;-141.28;100.00;48216.94;5108019;28;20599;-76
2022/11/17 09:36:12;;;;;;;34.43;19.93;;;;;;;-141.28;100.00;48242.47;5114902;28;20675;-78
2022/11/17 09:38:39;;;;;;;17.83;10.33;;;;;;;-141.28;100.00;48230.69;5114524;28;20294;-76
2022/11/17 09:41:23;;;;;;;22.07;13.17;;;;;;;-141.28;100.00;48254.22;5114243;28;20583;-75
2022/11/17 09:43:57;;;;;;;20.23;12.53;;;;;;;-141.28;100.00;48318.97;5114314;28;20195;-78
2022/11/17 09:46:32;;;;;;;11.10;7.87;;;;;;;-141.28;100.00;48258.16;5114757;28;20201;-76
2022/11/17 09:49:06;;;;;;;14.27;8.73;;;;;;;-141.28;100.00;48262.06;5101534;28;20232;-77
2022/11/17 09:51:35;;;;;;;12.90;7.67;;;;;;;-141.28;100.00;48266.00;5115127;28;20255;-76
2022/11/17 09:54:07;;;;;;;16.10;9.73;;;;;;;-141.28;100.00;48289.53;5114720;28;20223;-75
2022/11/17 09:56:34;;;;;;;12.23;8.63;;;;;;;-141.28;100.00;48297.38;5114995;28;20202;-75
2022/11/17 09:59:04;;;;;;;17.53;9.50;;;;;;;-141.28;100.00;48330.72;5113912;28;20199;-76
2022/11/17 10:01:33;;;;;;;18.10;10.40;;;;;;;-141.28;100.00;48344.47;5113552;28;20206;-76
2022/11/17 10:04:00;;;;;;;18.43;9.20;;;;;;;-141.28;100.00;48352.31;5113348;28;20656;-76
2022/11/17 10:06:28;;;;;;;14.87;8.93;;;;;;;-141.28;100.00;48340.53;5113713;28;20218;-76
2022/11/17 10:09:00;;;;;;;10.87;6.93;;;;;;;-141.28;100.00;48360.16;5113402;28;20214;-76
2022/11/17 10:11:33;;;;;;;7.90;5.90;;;;;;;-141.28;100.00;48352.31;5113914;28;20330;-75
2022/11/17 10:14:22;;;;;;;9.33;6.43;;;;;;;-141.28;100.00;48387.63;5100294;28;20236;-75
2022/11/17 10:16:54;;;;;;;9.70;6.53;;;;;;;-141.28;100.00;48364.06;5113663;28;20278;-74
2022/11/17 10:19:24;;;;;;;14.63;7.77;;;;;;;-141.28;100.00;48311.09;5113317;28;20239;-77
2022/11/17 10:21:54;;;;;;;15.20;9.67;;;;;;;-141.28;100.00;48338.56;5113160;28;20956;-75
2022/11/17 10:24:36;;;;;;;20.20;10.73;;;;;;;-141.28;100.00;48340.53;5113164;28;20308;-77
2022/11/17 10:27:05;;;;;;;43.67;20.67;;;;;;;-141.28;100.00;48328.75;5113387;28;20236;-77
2022/11/17 10:29:32;;;;;;;15.77;8.13;;;;;;;-141.28;100.00;48375.84;5113259;28;20281;-75
2022/11/17 10:32:08;;;;;;;41.60;20.73;;;;;;;-141.28;100.00;48330.72;5112718;28;20260;-75
2022/11/17 10:34:38;;;;;;;51.30;30.03;;;;;;;-141.28;100.00;48328.75;5113361;28;20222;-78
2022/11/17 10:37:23;;;;;;;19.37;11.27;;;;;;;-141.28;100.00;48317.00;5113178;28;20323;-74
2022/11/17 10:39:50;;;;;;;13.17;8.20;;;;;;;-141.28;100.00;48315.03;5101081;28;20280;-76
2022/11/17 10:42:22;;;;;;;13.90;7.57;;;;;;;-141.28;100.00;48315.03;5111709;28;20195;-77
2022/11/17 10:44:52;;;;;;;11.90;8.13;;;;;;;-141.28;100.00;48317.00;5113481;28;20548;-76
2022/11/17 10:47:29;;;;;;;11.00;7.87;;;;;;;-141.28;100.00;48318.97;5122093;28;20199;-73
2022/11/17 10:50:24;;;;;;;15.40;8.20;;;;;;;-141.28;100.00;48324.84;5120501;28;20203;-74
2022/11/17 10:52:52;;;;;;;16.53;8.07;;;;;;;-141.28;100.00;48320.91;5113898;28;20216;-75
2022/11/17 10:55:28;;;;;;;17.07;9.47;;;;;;;-141.28;100.00;48334.66;5123369;28;20674;-75
2022/11/17 10:57:59;;;;;;;18.23;13.33;;;;;;;-141.28;100.00;48326.81;5121381;28;20199;-75
2022/11/17 11:00:30;;;;;;;15.63;12.17;;;;;;;-141.28;100.00;48269.91;5112253;28;20278;-75
2022/11/17 11:03:23;;;;;;;14.57;9.37;;;;;;;-141.28;100.00;48281.69;5112268;28;20205;-76
2022/11/17 11:06:05;;;;;;;14.83;8.10;;;;;;;-141.28;100.00;48273.84;5091032;28;20238;-77
2022/11/17 11:08:45;;;;;;;9.70;6.37;;;;;;;-141.28;100.00;48250.31;5112511;28;20208;-75
2022/11/17 11:11:21;;;;;;;9.03;6.00;;;;;;;-141.28;100.00;48248.34;5110931;28;20206;-74
2022/11/17 11:13:55;;;;;;;12.20;6.97;;;;;;;-141.28;100.00;48211.06;5113304;28;20244;-77
2022/11/17 11:16:22;;;;;;;13.57;7.00;;;;;;;-141.28;100.00;48183.59;5112354;28;20203;-78
2022/11/17 11:18:52;;;;;;;18.03;9.67;;;;;;;-141.28;100.00;48177.72;5112531;28;20227;-77
2022/11/17 11:21:35;;;;;;;19.00;9.37;;;;;;;-141.28;100.00;48179.69;5112448;28;20195;-77
2022/11/17 11:24:13;;;;;;;13.27;7.97;;;;;;;-141.28;100.00;48191.44;5112439;28;20236;-76
2022/11/17 11:26:49;;;;;;;11.17;8.10;;;;;;;-141.28;100.00;48211.06;5111960;28;20195;-77
2022/11/17 11:29:30;;;;;;;12.17;7.90;;;;;;;-141.28;100.00;48213.03;5111675;28;20202;-78
2022/11/17 11:32:15;;;;;;;12.13;8.57;;;;;;;-141.28;100.00;48193.41;5112101;28;20756;-76
2022/11/17 11:35:20;;;;;;;16.93;8.53;;;;;;;-141.28;100.00;48228.72;5112686;28;20695;-78
2022/11/17 11:37:58;;;;;;;14.80;8.90;;;;;;;-141.28;100.00;48226.75;5072086;28;20197;-77
2022/11/17 11:40:29;;;;;;;14.70;8.57;;;;;;;-141.28;100.00;48222.84;5111654;28;20198;-78
2022/11/17 11:42:58;;;;;;;13.67;7.60;;;;;;;-141.28;100.00;48207.16;5111766;28;20202;-75
2022/11/17 11:45:42;;;;;;;12.23;8.43;;;;;;;-141.28;100.00;48224.81;5112100;28;20711;-76